Redondo Beach, Washington
Current Conditions -  °F | °C
As of 1:53 PM on Sunday 23 Nov 2014 (Local Time) from KSEA Reporting Station
Scattered Clouds Scattered Clouds  
Wind Chill: 53°   Ceiling: Unl
Heat Index: 53°   Visibility: 10mi
Dew Point: 44°   Wind: 7mph
Humidity: 71%   Direction: 210°SSW
Pressure: 30.15"   Gusts: NA
Location:  47.4036°N, 122.309°W
Report Text: KSEA 232153Z 21006KT 10SM FEW012 SCT050 SCT200 12/07 A3015 RMK AO2 SLP218 T01170067
Loading
Personal Weather Stations






























Interactive Weather Map New forecast layout! Learn more

10-Day Weather Forecast

Advertisements
Track Severe Weather on mobile